createdAt,value
2017-09-20T00:00:27.167Z,936.19
2017-09-20T00:00:55.343Z,936.26
2017-09-20T00:01:23.300Z,936.2
2017-09-20T00:01:51.476Z,936.19
2017-09-20T00:02:19.684Z,936.19
2017-09-20T00:02:47.713Z,936.2
2017-09-20T00:03:15.896Z,936.2
2017-09-20T00:03:44.069Z,936.19
2017-09-20T00:04:12.251Z,936.19
2017-09-20T00:04:40.238Z,936.16
2017-09-20T00:05:08.319Z,936.22
2017-09-20T00:05:36.606Z,936.21
2017-09-20T00:06:04.582Z,936.19
2017-09-20T00:06:32.700Z,936.2
2017-09-20T00:07:00.897Z,936.21
2017-09-20T00:07:28.999Z,936.19
2017-09-20T00:07:57.166Z,936.17
2017-09-20T00:08:25.255Z,936.2
2017-09-20T00:08:53.467Z,936.16
2017-09-20T00:09:21.652Z,936.21
2017-09-20T00:09:49.641Z,936.21
2017-09-20T00:10:17.502Z,936.21
2017-09-20T00:10:45.594Z,936.2
2017-09-20T00:11:13.760Z,936.18
2017-09-20T00:11:41.861Z,936.22
2017-09-20T00:12:10.058Z,936.2
2017-09-20T00:12:38.248Z,936.2
2017-09-20T00:13:06.414Z,936.16
2017-09-20T00:13:34.650Z,936.23
2017-09-20T00:14:02.747Z,936.22
2017-09-20T00:14:30.830Z,936.25
2017-09-20T00:14:59.030Z,936.2
2017-09-20T00:15:27.112Z,936.21
2017-09-20T00:15:55.407Z,936.21
2017-09-20T00:16:23.497Z,936.22
2017-09-20T00:16:51.687Z,936.24
2017-09-20T00:17:19.857Z,936.21
2017-09-20T00:17:47.963Z,936.19
2017-09-20T00:18:16.162Z,936.18
2017-09-20T00:18:44.372Z,936.18
2017-09-20T00:19:12.559Z,936.16
2017-09-20T00:19:40.667Z,936.18
2017-09-20T00:20:08.859Z,936.21
2017-09-20T00:20:36.881Z,936.17
2017-09-20T00:21:05.168Z,936.17
2017-09-20T00:21:33.352Z,936.15
2017-09-20T00:22:01.425Z,936.18
2017-09-20T00:22:29.603Z,936.13
2017-09-20T00:22:57.718Z,936.15
2017-09-20T00:23:25.818Z,936.17
2017-09-20T00:23:53.911Z,936.15
2017-09-20T00:24:22.009Z,936.17
2017-09-20T00:24:50.166Z,936.15
2017-09-20T00:25:18.343Z,936.13
2017-09-20T00:25:46.498Z,936.13
2017-09-20T00:26:14.694Z,936.14
2017-09-20T00:26:42.782Z,936.18
2017-09-20T00:27:10.888Z,936.11
2017-09-20T00:27:39.006Z,936.11
2017-09-20T00:28:07.189Z,936.09
2017-09-20T00:28:35.341Z,936.17
2017-09-20T00:29:03.488Z,936.1
2017-09-20T00:29:31.691Z,936.12
2017-09-20T00:29:59.760Z,936.15
2017-09-20T00:30:27.914Z,936.12
2017-09-20T00:30:56.119Z,936.12
2017-09-20T00:31:24.207Z,936.09
2017-09-20T00:31:52.095Z,936.13
2017-09-20T00:32:20.258Z,936.1
2017-09-20T00:32:48.388Z,936.1
2017-09-20T00:33:16.590Z,936.13
2017-09-20T00:33:44.704Z,936.14
2017-09-20T00:34:12.918Z,936.11
2017-09-20T00:34:41.145Z,936.1
2017-09-20T00:35:09.009Z,936.13
2017-09-20T00:35:37.153Z,936.12
2017-09-20T00:36:05.341Z,936.16
2017-09-20T00:36:33.233Z,936.18
2017-09-20T00:37:01.405Z,936.16
2017-09-20T00:37:29.584Z,936.14
2017-09-20T00:37:57.770Z,936.12
2017-09-20T00:38:26.013Z,936.11
2017-09-20T00:38:54.171Z,936.13
2017-09-20T00:39:22.375Z,936.13
2017-09-20T00:39:50.567Z,936.14
2017-09-20T00:40:18.470Z,936.11
2017-09-20T00:40:46.550Z,936.13
2017-09-20T00:41:14.710Z,936.15
2017-09-20T00:41:42.958Z,936.12
2017-09-20T00:42:11.143Z,936.13
2017-09-20T00:42:39.336Z,936.14
2017-09-20T00:43:07.303Z,936.15
2017-09-20T00:43:35.392Z,936.13
2017-09-20T00:44:03.468Z,936.14
2017-09-20T00:44:31.448Z,936.21
2017-09-20T00:44:59.638Z,936.15
2017-09-20T00:45:27.734Z,936.17
2017-09-20T00:45:55.946Z,936.18
2017-09-20T00:46:24.143Z,936.12
2017-09-20T00:46:52.340Z,936.14
2017-09-20T00:47:20.528Z,936.13
2017-09-20T00:47:48.616Z,936.14
2017-09-20T00:48:16.772Z,936.11
2017-09-20T00:48:44.998Z,936.14
2017-09-20T00:49:12.781Z,936.16
2017-09-20T00:49:41.008Z,936.12
2017-09-20T00:50:08.937Z,936.17
2017-09-20T00:50:37.008Z,936.15
2017-09-20T00:51:05.305Z,936.14
2017-09-20T00:51:33.510Z,936.11
2017-09-20T00:52:01.617Z,936.14
2017-09-20T00:52:29.588Z,936.14
2017-09-20T00:52:57.681Z,936.15
2017-09-20T00:53:25.774Z,936.15
2017-09-20T00:53:53.865Z,936.12
2017-09-20T00:54:22.048Z,936.15
2017-09-20T00:54:50.251Z,936.1
2017-09-20T00:55:18.257Z,936.13
2017-09-20T00:55:46.107Z,936.17
2017-09-20T00:56:14.310Z,936.14
2017-09-20T00:56:42.328Z,936.15
2017-09-20T00:57:10.304Z,936.18
2017-09-20T00:57:38.302Z,936.18
2017-09-20T00:58:06.408Z,936.17
2017-09-20T00:58:34.481Z,936.19
2017-09-20T00:59:02.679Z,936.16
2017-09-20T00:59:30.649Z,936.14
2017-09-20T00:59:58.821Z,936.15
2017-09-20T01:00:26.998Z,936.19
2017-09-20T01:00:55.188Z,936.16
2017-09-20T01:01:23.386Z,936.12
2017-09-20T01:01:51.451Z,936.12
2017-09-20T01:02:19.444Z,936.14
2017-09-20T01:02:47.630Z,936.08
2017-09-20T01:03:15.720Z,936.11
2017-09-20T01:03:43.950Z,936.12
2017-09-20T01:04:12.012Z,936.16
2017-09-20T01:04:40.223Z,936.11
2017-09-20T01:05:08.349Z,936.1
2017-09-20T01:05:36.531Z,936.1
2017-09-20T01:06:04.723Z,936.1
2017-09-20T01:06:33.031Z,936.11
2017-09-20T01:07:01.212Z,936.08
2017-09-20T01:07:29.008Z,936.11
2017-09-20T01:07:57.233Z,936.1
2017-09-20T01:08:25.302Z,936.09
2017-09-20T01:08:53.411Z,936.07
2017-09-20T01:09:21.502Z,936.06
2017-09-20T01:09:49.685Z,936.07
2017-09-20T01:10:17.796Z,936.06
2017-09-20T01:10:45.984Z,936.06
2017-09-20T01:11:14.074Z,936.03
2017-09-20T01:11:42.349Z,936.04
2017-09-20T01:12:10.407Z,936.04
2017-09-20T01:12:38.294Z,936.02
2017-09-20T01:13:06.269Z,936.06
2017-09-20T01:13:34.361Z,936.06
2017-09-20T01:14:02.350Z,936.09
2017-09-20T01:14:30.437Z,936.07
2017-09-20T01:14:58.510Z,936.03
2017-09-20T01:15:26.688Z,936.08
2017-09-20T01:15:54.865Z,936.04
2017-09-20T01:16:23.026Z,936.01
2017-09-20T01:16:51.112Z,936.06
2017-09-20T01:17:19.314Z,936.02
2017-09-20T01:17:47.501Z,936.06
2017-09-20T01:18:15.696Z,936.02
2017-09-20T01:18:43.900Z,936.03
2017-09-20T01:19:11.868Z,936.04
2017-09-20T01:19:40.090Z,936.01
2017-09-20T01:20:08.279Z,936
2017-09-20T01:20:36.475Z,936
2017-09-20T01:21:04.367Z,936
2017-09-20T01:21:32.660Z,935.98
2017-09-20T01:22:00.754Z,935.99
2017-09-20T01:22:28.931Z,935.96
2017-09-20T01:22:57.015Z,935.98
2017-09-20T01:23:25.108Z,935.98
2017-09-20T01:23:53.126Z,936
2017-09-20T01:24:21.318Z,936.02
2017-09-20T01:24:49.501Z,936.01
2017-09-20T01:25:17.729Z,936.02
2017-09-20T01:25:45.847Z,936.02
2017-09-20T01:26:13.943Z,936.02
2017-09-20T01:26:42.140Z,935.99
2017-09-20T01:27:10.334Z,936
2017-09-20T01:27:38.457Z,936.04
2017-09-20T01:28:06.534Z,935.99
2017-09-20T01:28:34.521Z,936.01
2017-09-20T01:29:02.744Z,936.03
2017-09-20T01:29:30.950Z,936
2017-09-20T01:29:59.120Z,936.03
2017-09-20T01:30:27.312Z,936.01
2017-09-20T01:30:55.335Z,936.02
2017-09-20T01:31:23.515Z,935.99
2017-09-20T01:31:51.621Z,936.03
2017-09-20T01:32:19.819Z,935.97
2017-09-20T01:32:47.920Z,935.97
2017-09-20T01:33:16.088Z,936.01
2017-09-20T01:33:44.157Z,936
2017-09-20T01:34:12.279Z,936
2017-09-20T01:34:40.295Z,936.01
2017-09-20T01:35:08.482Z,936
2017-09-20T01:35:36.603Z,936
2017-09-20T01:36:04.586Z,935.99
2017-09-20T01:36:32.564Z,936
2017-09-20T01:37:00.758Z,935.99
2017-09-20T01:37:28.971Z,936.02
2017-09-20T01:37:57.063Z,936.01
2017-09-20T01:38:25.121Z,936.03
2017-09-20T01:38:53.325Z,936.01
2017-09-20T01:39:21.446Z,936
2017-09-20T01:39:49.654Z,935.98
2017-09-20T01:40:17.731Z,935.97
2017-09-20T01:40:45.913Z,935.96
2017-09-20T01:41:13.903Z,935.97
2017-09-20T01:41:42.179Z,935.99
2017-09-20T01:42:10.345Z,935.99
2017-09-20T01:42:38.458Z,935.98
2017-09-20T01:43:06.547Z,935.97
2017-09-20T01:43:34.640Z,935.97
2017-09-20T01:44:02.760Z,935.95
2017-09-20T01:44:30.951Z,935.97
2017-09-20T01:44:58.932Z,935.93
2017-09-20T01:45:26.930Z,935.96
2017-09-20T01:45:55.028Z,935.97
2017-09-20T01:46:23.113Z,935.95
2017-09-20T01:46:51.224Z,935.94
2017-09-20T01:47:19.447Z,935.96
2017-09-20T01:47:47.643Z,935.92
2017-09-20T01:48:15.745Z,935.95
2017-09-20T01:48:43.726Z,935.93
2017-09-20T01:49:11.847Z,935.97
2017-09-20T01:49:39.952Z,935.98
2017-09-20T01:50:08.057Z,935.97
2017-09-20T01:50:36.167Z,935.95
2017-09-20T01:51:04.370Z,935.97
2017-09-20T01:51:32.417Z,935.96
2017-09-20T01:52:00.741Z,935.99
2017-09-20T01:52:28.820Z,935.96
2017-09-20T01:52:56.905Z,935.94
2017-09-20T01:53:25.004Z,935.99
2017-09-20T01:53:53.086Z,935.98
2017-09-20T01:54:21.274Z,935.97
2017-09-20T01:54:49.485Z,935.98
2017-09-20T01:55:17.671Z,935.98
2017-09-20T01:55:45.863Z,935.96
2017-09-20T01:56:13.964Z,935.98
2017-09-20T01:56:42.170Z,935.94
2017-09-20T01:57:10.387Z,935.96
2017-09-20T01:57:38.567Z,936
2017-09-20T01:58:06.736Z,936
2017-09-20T01:58:34.929Z,935.99
2017-09-20T01:59:03.011Z,935.98
2017-09-20T01:59:31.184Z,935.98
2017-09-20T01:59:59.397Z,935.97
2017-09-20T02:00:27.431Z,935.99
2017-09-20T02:00:55.441Z,936.01
2017-09-20T02:01:23.637Z,935.99
2017-09-20T02:01:51.639Z,935.98
2017-09-20T02:02:19.815Z,936
2017-09-20T02:02:47.842Z,936.01
2017-09-20T02:03:15.947Z,935.99
2017-09-20T02:03:43.841Z,936.03
2017-09-20T02:04:12.024Z,936.02
2017-09-20T02:04:40.197Z,936.03
2017-09-20T02:05:08.368Z,936.04
2017-09-20T02:05:36.432Z,936.04
2017-09-20T02:06:04.634Z,936.05
2017-09-20T02:06:32.712Z,936.06
2017-09-20T02:07:00.817Z,936.05
2017-09-20T02:07:28.934Z,936.06
2017-09-20T02:07:56.912Z,936.06
2017-09-20T02:08:24.828Z,936.06
2017-09-20T02:08:53.045Z,936.1
2017-09-20T02:09:21.112Z,936.09
2017-09-20T02:09:49.130Z,936.07
2017-09-20T02:10:17.213Z,936.07
2017-09-20T02:10:45.322Z,936.09
2017-09-20T02:11:13.332Z,936.09
2017-09-20T02:11:41.561Z,936.1
2017-09-20T02:12:09.777Z,936.09
2017-09-20T02:12:37.902Z,936.1
2017-09-20T02:13:06.006Z,936.09
2017-09-20T02:13:34.100Z,936.06
2017-09-20T02:14:02.315Z,936.08
2017-09-20T02:14:30.291Z,936.01
2017-09-20T02:14:58.341Z,936.02
2017-09-20T02:15:26.248Z,936
2017-09-20T02:15:54.365Z,936.02
2017-09-20T02:16:22.459Z,935.99
2017-09-20T02:16:50.645Z,936.02
2017-09-20T02:17:18.731Z,935.99
2017-09-20T02:17:46.917Z,936
2017-09-20T02:18:14.914Z,936.01
2017-09-20T02:18:43.074Z,936.01
2017-09-20T02:19:10.984Z,935.99
2017-09-20T02:19:38.964Z,935.99
2017-09-20T02:20:07.126Z,935.98
2017-09-20T02:20:35.231Z,936
2017-09-20T02:21:03.422Z,936.02
2017-09-20T02:21:31.615Z,935.99
2017-09-20T02:21:59.657Z,936.03
2017-09-20T02:22:27.845Z,936.03
2017-09-20T02:22:55.968Z,936.01
2017-09-20T02:23:24.015Z,936.01
2017-09-20T02:23:52.002Z,936.02
2017-09-20T02:24:20.068Z,936.05
2017-09-20T02:24:48.277Z,936.01
2017-09-20T02:25:16.274Z,936.01
2017-09-20T02:25:44.336Z,936.01
2017-09-20T02:26:12.429Z,935.99
2017-09-20T02:26:40.521Z,936
2017-09-20T02:27:08.392Z,935.97
2017-09-20T02:27:36.297Z,935.99
2017-09-20T02:28:04.378Z,935.96
2017-09-20T02:28:32.445Z,935.98
2017-09-20T02:29:00.330Z,935.99
2017-09-20T02:29:28.189Z,935.98
2017-09-20T02:29:56.055Z,936
2017-09-20T02:30:24.025Z,936.01
2017-09-20T02:30:52.120Z,936
2017-09-20T02:31:20.011Z,936
2017-09-20T02:31:48.245Z,935.99
2017-09-20T02:32:16.419Z,935.99
2017-09-20T02:32:44.543Z,936
2017-09-20T02:33:12.714Z,936
2017-09-20T02:33:40.703Z,936.01
2017-09-20T02:34:08.782Z,936.02
2017-09-20T02:34:36.766Z,935.99
2017-09-20T02:35:04.863Z,936
2017-09-20T02:35:33.047Z,936.01
2017-09-20T02:36:01.048Z,936.01
2017-09-20T02:36:29.131Z,936
2017-09-20T02:36:57.303Z,935.98
2017-09-20T02:37:25.494Z,935.97
2017-09-20T02:37:53.508Z,935.96
2017-09-20T02:38:21.671Z,936
2017-09-20T02:38:49.881Z,935.95
2017-09-20T02:39:18.082Z,935.98
2017-09-20T02:39:46.184Z,935.92
2017-09-20T02:40:14.368Z,935.97
2017-09-20T02:40:42.434Z,935.92
2017-09-20T02:41:10.613Z,935.91
2017-09-20T02:41:38.797Z,935.89
2017-09-20T02:42:06.963Z,935.9
2017-09-20T02:42:35.152Z,935.91
2017-09-20T02:43:03.587Z,935.88
2017-09-20T02:43:31.698Z,935.91
2017-09-20T02:43:59.765Z,935.88
2017-09-20T02:44:27.949Z,935.9
2017-09-20T02:44:55.948Z,935.89
2017-09-20T02:45:24.166Z,935.88
2017-09-20T02:45:52.341Z,935.88
2017-09-20T02:46:20.509Z,935.87
2017-09-20T02:46:48.593Z,935.85
2017-09-20T02:47:16.794Z,935.87
2017-09-20T02:47:45.008Z,935.86
2017-09-20T02:48:13.159Z,935.87
2017-09-20T02:48:41.282Z,935.86
2017-09-20T02:49:09.278Z,935.88
2017-09-20T02:49:37.403Z,935.89
2017-09-20T02:50:05.494Z,935.88
2017-09-20T02:50:33.599Z,935.88
2017-09-20T02:51:01.773Z,935.85
2017-09-20T02:51:29.833Z,935.85
2017-09-20T02:51:57.989Z,935.88
2017-09-20T02:52:26.188Z,935.87
2017-09-20T02:52:54.447Z,935.87
2017-09-20T02:53:22.619Z,935.84
2017-09-20T02:53:50.836Z,935.83
2017-09-20T02:54:18.844Z,935.83
2017-09-20T02:54:47.037Z,935.84
2017-09-20T02:55:15.109Z,935.81
2017-09-20T02:55:43.097Z,935.82
2017-09-20T02:56:11.277Z,935.81
2017-09-20T02:56:39.353Z,935.79
2017-09-20T02:57:07.523Z,935.77
2017-09-20T02:57:35.811Z,935.8
2017-09-20T02:58:03.998Z,935.8
2017-09-20T02:58:31.870Z,935.81
2017-09-20T02:59:00.060Z,935.78
2017-09-20T02:59:28.147Z,935.76
2017-09-20T02:59:56.345Z,935.78
2017-09-20T03:00:24.450Z,935.8
2017-09-20T03:00:52.635Z,935.8
2017-09-20T03:01:20.747Z,935.81
2017-09-20T03:01:48.929Z,935.85
2017-09-20T03:02:16.994Z,935.83
2017-09-20T03:02:45.139Z,935.82
2017-09-20T03:03:13.069Z,935.81
2017-09-20T03:03:41.155Z,935.81
2017-09-20T03:04:09.359Z,935.81
2017-09-20T03:04:37.543Z,935.79
2017-09-20T03:05:05.630Z,935.76
2017-09-20T03:05:33.559Z,935.77
2017-09-20T03:06:01.649Z,935.78
2017-09-20T03:06:29.664Z,935.77
2017-09-20T03:06:57.751Z,935.73
2017-09-20T03:07:25.946Z,935.77
2017-09-20T03:07:54.237Z,935.72
2017-09-20T03:08:22.395Z,935.71
2017-09-20T03:08:50.581Z,935.72
2017-09-20T03:09:18.724Z,935.71
2017-09-20T03:09:46.713Z,935.73
2017-09-20T03:10:14.908Z,935.73
2017-09-20T03:10:43.100Z,935.73
2017-09-20T03:11:11.212Z,935.73
2017-09-20T03:11:39.317Z,935.67
2017-09-20T03:12:07.289Z,935.69
2017-09-20T03:12:35.272Z,935.65
2017-09-20T03:13:03.575Z,935.65
2017-09-20T03:13:31.787Z,935.62
2017-09-20T03:13:59.883Z,935.61
2017-09-20T03:14:28.113Z,935.6
2017-09-20T03:14:56.225Z,935.6
2017-09-20T03:15:24.420Z,935.58
2017-09-20T03:15:52.613Z,935.55
2017-09-20T03:16:20.803Z,935.55
2017-09-20T03:16:48.903Z,935.55
2017-09-20T03:17:17.098Z,935.57
2017-09-20T03:17:45.148Z,935.57
2017-09-20T03:18:13.433Z,935.51
2017-09-20T03:18:41.450Z,935.52
2017-09-20T03:19:09.553Z,935.53
2017-09-20T03:19:37.629Z,935.51
2017-09-20T03:20:05.583Z,935.55
2017-09-20T03:20:33.756Z,935.49
2017-09-20T03:21:01.722Z,935.51
2017-09-20T03:21:29.890Z,935.5
2017-09-20T03:21:57.779Z,935.53
2017-09-20T03:22:25.874Z,935.53
2017-09-20T03:22:53.868Z,935.48
2017-09-20T03:23:21.767Z,935.52
2017-09-20T03:23:49.848Z,935.49
2017-09-20T03:24:17.968Z,935.48
2017-09-20T03:24:46.066Z,935.48
2017-09-20T03:25:14.060Z,935.49
2017-09-20T03:25:42.153Z,935.46
2017-09-20T03:26:10.261Z,935.48
2017-09-20T03:26:38.335Z,935.53
2017-09-20T03:27:06.462Z,935.47
2017-09-20T03:27:34.534Z,935.5
2017-09-20T03:28:02.810Z,935.46
2017-09-20T03:28:30.805Z,935.45
2017-09-20T03:28:58.879Z,935.44
2017-09-20T03:29:27.076Z,935.46
2017-09-20T03:29:55.162Z,935.43
2017-09-20T03:30:23.155Z,935.41
2017-09-20T03:30:51.350Z,935.4
2017-09-20T03:31:19.465Z,935.42
2017-09-20T03:31:47.638Z,935.42
2017-09-20T03:32:15.876Z,935.45
2017-09-20T03:32:43.957Z,935.43
2017-09-20T03:33:12.171Z,935.45
2017-09-20T03:33:40.357Z,935.48
2017-09-20T03:34:08.464Z,935.44
2017-09-20T03:34:36.437Z,935.44
2017-09-20T03:35:04.626Z,935.46
2017-09-20T03:35:32.812Z,935.43
2017-09-20T03:36:00.994Z,935.42
2017-09-20T03:36:28.981Z,935.47
2017-09-20T03:36:57.150Z,935.43
2017-09-20T03:37:24.925Z,935.41
2017-09-20T03:37:53.011Z,935.41
2017-09-20T03:38:21.291Z,935.44
2017-09-20T03:38:49.361Z,935.45
2017-09-20T03:39:17.548Z,935.41
2017-09-20T03:39:45.630Z,935.41
2017-09-20T03:40:13.736Z,935.43
2017-09-20T03:40:41.812Z,935.43
2017-09-20T03:41:10.022Z,935.4
2017-09-20T03:41:38.216Z,935.41
2017-09-20T03:42:06.409Z,935.39
2017-09-20T03:42:34.400Z,935.38
2017-09-20T03:43:02.468Z,935.38
2017-09-20T03:43:30.583Z,935.38
2017-09-20T03:43:58.767Z,935.39
2017-09-20T03:44:27.126Z,935.34
2017-09-20T03:44:55.187Z,935.34
2017-09-20T03:45:23.274Z,935.33
2017-09-20T03:45:51.529Z,935.28
2017-09-20T03:46:19.446Z,935.32
2017-09-20T03:46:47.619Z,935.3
2017-09-20T03:47:15.595Z,935.27
2017-09-20T03:47:43.782Z,935.29
2017-09-20T03:48:12.070Z,935.31
2017-09-20T03:48:40.262Z,935.27
2017-09-20T03:49:08.339Z,935.29
2017-09-20T03:49:36.326Z,935.25
2017-09-20T03:50:04.402Z,935.26
2017-09-20T03:50:32.497Z,935.23
2017-09-20T03:51:00.954Z,935.26
2017-09-20T03:51:29.136Z,935.25
2017-09-20T03:51:57.049Z,935.23
2017-09-20T03:52:25.226Z,935.22
2017-09-20T03:52:53.311Z,935.22
2017-09-20T03:53:21.287Z,935.21
2017-09-20T03:53:49.392Z,935.23
2017-09-20T03:54:17.508Z,935.23
2017-09-20T03:54:45.583Z,935.25
2017-09-20T03:55:13.668Z,935.19
2017-09-20T03:55:41.862Z,935.17
2017-09-20T03:56:10.060Z,935.19
2017-09-20T03:56:38.143Z,935.19
2017-09-20T03:57:06.258Z,935.16
2017-09-20T03:57:34.352Z,935.17
2017-09-20T03:58:02.548Z,935.19
2017-09-20T03:58:30.822Z,935.17
2017-09-20T03:58:58.814Z,935.16
2017-09-20T03:59:26.826Z,935.19
2017-09-20T03:59:54.821Z,935.16
2017-09-20T04:00:22.802Z,935.16
2017-09-20T04:00:51.023Z,935.13
2017-09-20T04:01:19.240Z,935.14
2017-09-20T04:01:47.431Z,935.12
2017-09-20T04:02:15.501Z,935.14
2017-09-20T04:02:43.621Z,935.14
2017-09-20T04:03:11.530Z,935.11
2017-09-20T04:03:39.741Z,935.11
2017-09-20T04:04:07.757Z,935.08
2017-09-20T04:04:35.817Z,935.06
2017-09-20T04:05:03.814Z,935.05
2017-09-20T04:05:31.810Z,935.03
2017-09-20T04:06:00.004Z,935.03
2017-09-20T04:06:28.178Z,935.04
2017-09-20T04:06:56.338Z,935.03
2017-09-20T04:07:24.417Z,935.02
2017-09-20T04:07:52.605Z,935.03
2017-09-20T04:08:20.814Z,934.99
2017-09-20T04:08:48.879Z,934.98
2017-09-20T04:09:16.947Z,935
2017-09-20T04:09:44.941Z,934.97
2017-09-20T04:10:13.162Z,934.97
2017-09-20T04:10:41.321Z,934.98
2017-09-20T04:11:09.362Z,934.94
2017-09-20T04:11:37.323Z,934.94
2017-09-20T04:12:05.419Z,934.94
2017-09-20T04:12:33.517Z,934.93
2017-09-20T04:13:01.571Z,934.92
2017-09-20T04:13:29.688Z,934.96
2017-09-20T04:13:57.792Z,934.95
2017-09-20T04:14:25.978Z,934.92
2017-09-20T04:14:53.955Z,934.93
2017-09-20T04:15:22.166Z,934.92
2017-09-20T04:15:50.160Z,934.91
2017-09-20T04:16:18.415Z,934.9
2017-09-20T04:16:46.489Z,934.94
2017-09-20T04:17:14.581Z,934.91
2017-09-20T04:17:42.708Z,934.91
2017-09-20T04:18:10.886Z,934.89
2017-09-20T04:18:39.088Z,934.89
2017-09-20T04:19:07.277Z,934.86
2017-09-20T04:19:35.463Z,934.89
2017-09-20T04:20:03.583Z,934.88
2017-09-20T04:20:31.608Z,934.87
2017-09-20T04:20:59.729Z,934.88
2017-09-20T04:21:27.774Z,934.86
2017-09-20T04:21:55.857Z,934.85
2017-09-20T04:22:24.044Z,934.87
2017-09-20T04:22:52.112Z,934.87
2017-09-20T04:23:20.281Z,934.87
2017-09-20T04:23:48.437Z,934.89
2017-09-20T04:24:16.497Z,934.87
2017-09-20T04:24:44.483Z,934.85
2017-09-20T04:25:12.553Z,934.84
2017-09-20T04:25:40.731Z,934.86
2017-09-20T04:26:08.726Z,934.89
2017-09-20T04:26:36.915Z,934.85
2017-09-20T04:27:05.109Z,934.87
2017-09-20T04:27:33.313Z,934.86
2017-09-20T04:28:01.390Z,934.87
2017-09-20T04:28:29.487Z,934.85
2017-09-20T04:28:57.652Z,934.86
2017-09-20T04:29:25.826Z,934.86
2017-09-20T04:29:53.811Z,934.89
2017-09-20T04:30:21.868Z,934.87
2017-09-20T04:30:49.751Z,934.89
2017-09-20T04:31:17.632Z,934.87
2017-09-20T04:31:45.800Z,934.89
2017-09-20T04:32:13.776Z,934.87
2017-09-20T04:32:41.958Z,934.87
2017-09-20T04:33:10.140Z,934.89
2017-09-20T04:33:38.329Z,934.86
2017-09-20T04:34:06.398Z,934.86
2017-09-20T04:34:34.371Z,934.86
2017-09-20T04:35:02.456Z,934.86
2017-09-20T04:35:30.536Z,934.86
2017-09-20T04:35:58.584Z,934.84
2017-09-20T04:36:26.428Z,934.86
2017-09-20T04:36:54.616Z,934.85
2017-09-20T04:37:22.699Z,934.82
2017-09-20T04:37:50.861Z,934.86
2017-09-20T04:38:18.838Z,934.82
2017-09-20T04:38:46.999Z,934.8
2017-09-20T04:39:15.153Z,934.8
2017-09-20T04:39:43.123Z,934.82
2017-09-20T04:40:11.289Z,934.76
2017-09-20T04:40:39.266Z,934.8
2017-09-20T04:41:07.321Z,934.79
2017-09-20T04:41:35.470Z,934.77
2017-09-20T04:42:03.569Z,934.79
2017-09-20T04:42:31.432Z,934.75
2017-09-20T04:42:59.517Z,934.79
2017-09-20T04:43:27.628Z,934.74
2017-09-20T04:43:55.889Z,934.74
2017-09-20T04:44:23.981Z,934.72
2017-09-20T04:44:52.129Z,934.75
2017-09-20T04:45:20.209Z,934.74
2017-09-20T04:45:48.313Z,934.73
2017-09-20T04:46:16.520Z,934.73
2017-09-20T04:46:44.587Z,934.73
2017-09-20T04:47:12.779Z,934.73
2017-09-20T04:47:40.934Z,934.72
2017-09-20T04:48:09.110Z,934.74
2017-09-20T04:48:37.268Z,934.73
2017-09-20T04:49:05.441Z,934.71
2017-09-20T04:49:33.616Z,934.71
2017-09-20T04:50:01.822Z,934.74
2017-09-20T04:50:30.022Z,934.74
2017-09-20T04:50:58.096Z,934.74
2017-09-20T04:51:26.163Z,934.72
2017-09-20T04:51:54.224Z,934.72
2017-09-20T04:52:22.282Z,934.74
2017-09-20T04:52:50.356Z,934.73
2017-09-20T04:53:18.326Z,934.72
2017-09-20T04:53:46.504Z,934.74
2017-09-20T04:54:14.590Z,934.74
2017-09-20T04:54:42.651Z,934.75
2017-09-20T04:55:10.723Z,934.71
2017-09-20T04:55:38.914Z,934.74
2017-09-20T04:56:06.917Z,934.72
2017-09-20T04:56:34.866Z,934.74
2017-09-20T04:57:02.950Z,934.73
2017-09-20T04:57:31.025Z,934.75
2017-09-20T04:57:58.888Z,934.73
2017-09-20T04:58:26.953Z,934.7
2017-09-20T04:58:55.131Z,934.7
2017-09-20T04:59:23.182Z,934.71
2017-09-20T04:59:51.257Z,934.7
2017-09-20T05:00:19.319Z,934.7
2017-09-20T05:00:47.330Z,934.64
2017-09-20T05:01:15.101Z,934.67
2017-09-20T05:01:43.163Z,934.65
2017-09-20T05:02:11.221Z,934.67
2017-09-20T05:02:38.963Z,934.65
2017-09-20T05:03:07.121Z,934.66
2017-09-20T05:03:34.896Z,934.65
2017-09-20T05:04:03.058Z,934.66
2017-09-20T05:04:31.058Z,934.64
2017-09-20T05:04:58.949Z,934.65
2017-09-20T05:05:27.019Z,934.66
2017-09-20T05:05:55.194Z,934.65
2017-09-20T05:06:23.346Z,934.63
2017-09-20T05:06:51.320Z,934.61
2017-09-20T05:07:19.397Z,934.62
2017-09-20T05:07:47.466Z,934.6
2017-09-20T05:08:15.515Z,934.58
2017-09-20T05:08:43.495Z,934.57
2017-09-20T05:09:11.778Z,934.57
2017-09-20T05:09:39.867Z,934.55
2017-09-20T05:10:07.918Z,934.57
2017-09-20T05:10:35.981Z,934.56
2017-09-20T05:11:04.173Z,934.58
2017-09-20T05:11:32.008Z,934.59
2017-09-20T05:12:00.151Z,934.57
2017-09-20T05:12:28.136Z,934.53
2017-09-20T05:12:56.209Z,934.54
2017-09-20T05:13:24.166Z,934.52
2017-09-20T05:13:52.277Z,934.52
2017-09-20T05:14:20.479Z,934.54
2017-09-20T05:14:48.636Z,934.52
2017-09-20T05:15:16.724Z,934.53
2017-09-20T05:15:44.796Z,934.52
2017-09-20T05:16:12.997Z,934.52
2017-09-20T05:16:41.186Z,934.49
2017-09-20T05:17:09.246Z,934.5
2017-09-20T05:17:37.340Z,934.5
2017-09-20T05:18:05.508Z,934.5
2017-09-20T05:18:33.583Z,934.48
2017-09-20T05:19:01.737Z,934.48
2017-09-20T05:19:29.981Z,934.49
2017-09-20T05:19:58.152Z,934.51
2017-09-20T05:20:26.242Z,934.49
2017-09-20T05:20:54.408Z,934.46
2017-09-20T05:21:22.491Z,934.47
2017-09-20T05:21:50.573Z,934.48
2017-09-20T05:22:18.620Z,934.48
2017-09-20T05:22:46.677Z,934.5
2017-09-20T05:23:14.754Z,934.46
2017-09-20T05:23:42.810Z,934.46
2017-09-20T05:24:10.985Z,934.46
2017-09-20T05:24:39.147Z,934.42
2017-09-20T05:25:07.208Z,934.44
2017-09-20T05:25:35.272Z,934.46
2017-09-20T05:26:03.218Z,934.46
2017-09-20T05:26:31.204Z,934.47
2017-09-20T05:26:59.368Z,934.46
2017-09-20T05:27:27.549Z,934.46
2017-09-20T05:27:55.630Z,934.49
2017-09-20T05:28:23.584Z,934.5
2017-09-20T05:28:51.736Z,934.51
2017-09-20T05:29:19.829Z,934.51
2017-09-20T05:29:47.983Z,934.54
2017-09-20T05:30:16.202Z,934.48
2017-09-20T05:30:44.246Z,934.52
2017-09-20T05:31:12.115Z,934.48
2017-09-20T05:31:40.340Z,934.47
2017-09-20T05:32:08.417Z,934.44
2017-09-20T05:32:36.593Z,934.48
2017-09-20T05:33:04.754Z,934.48
2017-09-20T05:33:32.798Z,934.47
2017-09-20T05:34:00.973Z,934.45
2017-09-20T05:34:29.150Z,934.46
2017-09-20T05:34:57.208Z,934.48
2017-09-20T05:35:25.170Z,934.46
2017-09-20T05:35:53.232Z,934.44
2017-09-20T05:36:21.324Z,934.47
2017-09-20T05:36:49.403Z,934.45
2017-09-20T05:37:17.423Z,934.42
2017-09-20T05:37:45.510Z,934.43
2017-09-20T05:38:13.468Z,934.38
2017-09-20T05:38:41.560Z,934.41
2017-09-20T05:39:09.755Z,934.41
2017-09-20T05:39:37.746Z,934.44
2017-09-20T05:40:05.820Z,934.43
2017-09-20T05:40:33.716Z,934.45
2017-09-20T05:41:01.907Z,934.4
2017-09-20T05:41:30.072Z,934.43
2017-09-20T05:41:58.128Z,934.46
2017-09-20T05:42:26.173Z,934.43
2017-09-20T05:42:54.363Z,934.41
2017-09-20T05:43:22.528Z,934.49
2017-09-20T05:43:50.721Z,934.47
2017-09-20T05:44:18.780Z,934.45
2017-09-20T05:44:46.943Z,934.4
2017-09-20T05:45:15.115Z,934.39
2017-09-20T05:45:43.184Z,934.41
2017-09-20T05:46:11.371Z,934.39
2017-09-20T05:46:39.534Z,934.41
2017-09-20T05:47:07.504Z,934.4
2017-09-20T05:47:35.480Z,934.37
2017-09-20T05:48:03.653Z,934.4
2017-09-20T05:48:31.736Z,934.42
2017-09-20T05:48:59.852Z,934.38
2017-09-20T05:49:28.058Z,934.41
2017-09-20T05:49:56.316Z,934.41
2017-09-20T05:50:24.536Z,934.41
2017-09-20T05:50:52.716Z,934.41
2017-09-20T05:51:20.734Z,934.39
2017-09-20T05:51:48.803Z,934.42
2017-09-20T05:52:16.989Z,934.4
2017-09-20T05:52:45.140Z,934.4